createdAt,value
2023-05-13T00:00:18.329Z,11.70
2023-05-13T00:03:21.959Z,11.93
2023-05-13T00:06:25.105Z,11.23
2023-05-13T00:09:28.492Z,11.25
2023-05-13T00:12:31.573Z,11.20
2023-05-13T00:15:35.012Z,11.25
2023-05-13T00:18:38.081Z,10.80
2023-05-13T00:21:41.559Z,11.20
2023-05-13T00:24:44.914Z,10.73
2023-05-13T00:27:48.204Z,11.27
2023-05-13T00:30:51.346Z,11.80
2023-05-13T00:33:55.311Z,10.57
2023-05-13T00:36:58.374Z,10.88
2023-05-13T00:40:02.528Z,11.13
2023-05-13T00:43:06.389Z,10.75
2023-05-13T00:46:10.077Z,9.75
2023-05-13T00:49:13.348Z,10.55
2023-05-13T00:52:16.715Z,9.77
2023-05-13T00:55:19.678Z,9.87
2023-05-13T00:58:23.246Z,9.55
2023-05-13T01:01:42.327Z,9.88
2023-05-13T01:05:14.749Z,9.95
2023-05-13T01:08:36.428Z,10.32
2023-05-13T01:11:42.441Z,9.87
2023-05-13T01:14:54.578Z,9.18
2023-05-13T01:18:21.222Z,10.02
2023-05-13T01:21:26.880Z,9.98
2023-05-13T01:24:30.524Z,10.63
2023-05-13T01:27:33.864Z,9.83
2023-05-13T01:30:38.635Z,9.27
2023-05-13T01:33:43.701Z,9.43
2023-05-13T01:36:49.260Z,8.40
2023-05-13T01:39:53.014Z,9.88
2023-05-13T01:42:56.871Z,9.13
2023-05-13T01:46:01.683Z,9.05
2023-05-13T01:49:05.107Z,9.93
2023-05-13T01:52:08.354Z,9.43
2023-05-13T01:55:11.839Z,9.10
2023-05-13T01:58:15.588Z,9.27
2023-05-13T02:01:20.447Z,8.88
2023-05-13T02:04:26.037Z,8.75
2023-05-13T02:07:29.310Z,8.35
2023-05-13T02:10:32.880Z,8.83
2023-05-13T02:13:36.906Z,9.00
2023-05-13T02:16:40.640Z,8.82
2023-05-13T02:19:43.943Z,8.77
2023-05-13T02:22:47.358Z,9.20
2023-05-13T02:25:50.602Z,8.27
2023-05-13T02:28:54.421Z,8.85
2023-05-13T02:31:57.518Z,8.80
2023-05-13T02:35:01.975Z,8.70
2023-05-13T02:38:05.404Z,8.10
2023-05-13T02:41:09.154Z,8.80
2023-05-13T02:44:12.412Z,8.63
2023-05-13T02:47:16.277Z,8.40
2023-05-13T02:50:20.028Z,8.90
2023-05-13T02:53:24.488Z,8.40
2023-05-13T02:56:28.057Z,7.97
2023-05-13T02:59:32.056Z,8.38
2023-05-13T03:02:35.521Z,8.90
2023-05-13T03:05:39.153Z,8.20
2023-05-13T03:08:42.402Z,8.57
2023-05-13T03:11:46.009Z,8.43
2023-05-13T03:14:49.096Z,8.45
2023-05-13T03:17:53.688Z,8.45
2023-05-13T03:20:56.814Z,8.50
2023-05-13T03:24:01.340Z,8.87
2023-05-13T03:27:05.868Z,9.10
2023-05-13T03:30:10.070Z,8.73
2023-05-13T03:33:15.767Z,8.57
2023-05-13T03:36:19.702Z,8.37
2023-05-13T03:39:23.045Z,9.32
2023-05-13T03:42:26.771Z,8.80
2023-05-13T03:45:31.432Z,8.75
2023-05-13T03:48:35.645Z,8.57
2023-05-13T03:51:39.255Z,8.43
2023-05-13T03:54:43.212Z,8.82
2023-05-13T03:57:48.454Z,9.35
2023-05-13T04:00:52.094Z,8.68
2023-05-13T04:03:55.561Z,9.35
2023-05-13T04:06:58.681Z,9.23
2023-05-13T04:10:02.311Z,8.43
2023-05-13T04:13:06.987Z,9.38
2023-05-13T04:16:10.558Z,8.75
2023-05-13T04:19:14.886Z,9.07
2023-05-13T04:22:18.248Z,8.57
2023-05-13T04:25:26.113Z,8.82
2023-05-13T04:28:30.083Z,8.57
2023-05-13T04:31:33.828Z,8.85
2023-05-13T04:34:38.623Z,9.18
2023-05-13T04:37:42.037Z,8.43
2023-05-13T04:40:45.793Z,8.77
2023-05-13T04:43:49.593Z,8.27
2023-05-13T04:46:53.028Z,7.03
2023-05-13T04:49:56.132Z,8.70
2023-05-13T04:53:00.255Z,8.33
2023-05-13T04:56:03.486Z,8.15
2023-05-13T04:59:08.787Z,8.38
2023-05-13T05:02:11.575Z,8.38
2023-05-13T05:05:17.446Z,8.25
2023-05-13T05:08:21.872Z,8.47
2023-05-13T05:11:25.500Z,8.68
2023-05-13T05:14:28.978Z,8.10
2023-05-13T05:17:32.973Z,8.73
2023-05-13T05:20:38.405Z,7.80
2023-05-13T05:23:42.825Z,7.87
2023-05-13T05:26:47.700Z,7.90
2023-05-13T05:29:51.802Z,7.25
2023-05-13T05:32:55.176Z,7.20
2023-05-13T05:36:00.191Z,6.95
2023-05-13T05:39:03.748Z,6.67
2023-05-13T05:42:08.509Z,6.43
2023-05-13T05:45:12.181Z,6.30
2023-05-13T05:48:16.101Z,6.03
2023-05-13T05:51:19.196Z,5.70
2023-05-13T05:54:22.579Z,5.97
2023-05-13T05:57:25.698Z,5.70
2023-05-13T06:00:29.022Z,6.18
2023-05-13T06:03:32.906Z,6.35
2023-05-13T06:06:36.946Z,5.57
2023-05-13T06:09:41.621Z,5.53
2023-05-13T06:12:45.083Z,5.10
2023-05-13T06:15:48.726Z,5.97
2023-05-13T06:18:52.973Z,6.07
2023-05-13T06:21:56.534Z,5.50
2023-05-13T06:25:00.432Z,5.80
2023-05-13T06:28:06.320Z,6.10
2023-05-13T06:31:09.444Z,6.12
2023-05-13T06:34:16.806Z,6.68
2023-05-13T06:37:20.374Z,6.37
2023-05-13T06:40:24.042Z,6.23
2023-05-13T06:43:27.575Z,6.20
2023-05-13T06:46:32.350Z,6.32
2023-05-13T06:49:35.566Z,6.18
2023-05-13T06:52:41.208Z,5.60
2023-05-13T06:55:45.063Z,4.83
2023-05-13T06:58:49.614Z,5.40
2023-05-13T07:01:55.243Z,5.18
2023-05-13T07:04:58.593Z,4.78
2023-05-13T07:08:06.720Z,4.75
2023-05-13T07:11:10.270Z,4.53
2023-05-13T07:14:13.555Z,4.78
2023-05-13T07:17:17.608Z,4.87
2023-05-13T07:20:23.014Z,5.00
2023-05-13T07:23:26.840Z,4.47
2023-05-13T07:26:30.048Z,4.43
2023-05-13T07:29:33.864Z,4.50
2023-05-13T07:32:37.638Z,4.82
2023-05-13T07:35:42.261Z,4.80
2023-05-13T07:38:45.457Z,4.82
2023-05-13T07:41:50.204Z,4.73
2023-05-13T07:44:53.270Z,4.45
2023-05-13T07:47:56.991Z,4.22
2023-05-13T07:51:00.196Z,4.70
2023-05-13T07:54:03.705Z,5.53
2023-05-13T07:57:07.075Z,4.30
2023-05-13T08:00:10.946Z,4.53
2023-05-13T08:03:17.000Z,4.55
2023-05-13T08:06:20.504Z,4.40
2023-05-13T08:09:23.601Z,4.82
2023-05-13T08:12:26.995Z,4.40
2023-05-13T08:15:30.122Z,4.32
2023-05-13T08:18:33.490Z,4.82
2023-05-13T08:21:36.778Z,4.37
2023-05-13T08:24:43.347Z,5.12
2023-05-13T08:27:47.389Z,4.20
2023-05-13T08:30:50.827Z,4.85
2023-05-13T08:33:54.379Z,4.30
2023-05-13T08:36:58.190Z,4.90
2023-05-13T08:40:04.886Z,4.95
2023-05-13T08:43:10.579Z,4.40
2023-05-13T08:46:17.240Z,4.25
2023-05-13T08:49:21.217Z,4.72
2023-05-13T08:52:24.477Z,4.90
2023-05-13T08:55:28.938Z,4.97
2023-05-13T08:58:32.088Z,4.70
2023-05-13T09:01:35.872Z,4.45
2023-05-13T09:04:41.359Z,4.80
2023-05-13T09:07:44.867Z,5.07
2023-05-13T09:10:48.193Z,7.15
2023-05-13T09:14:06.595Z,4.30
2023-05-13T09:17:09.742Z,4.75
2023-05-13T09:20:15.346Z,4.62
2023-05-13T09:23:18.751Z,4.65
2023-05-13T09:26:31.639Z,4.25
2023-05-13T09:29:35.746Z,4.40
2023-05-13T09:32:40.149Z,4.37
2023-05-13T09:35:48.725Z,5.03
2023-05-13T09:38:53.462Z,4.10
2023-05-13T09:41:57.860Z,4.70
2023-05-13T09:45:06.857Z,4.87
2023-05-13T09:48:11.515Z,4.40
2023-05-13T09:51:19.021Z,4.32
2023-05-13T09:54:21.952Z,5.50
2023-05-13T09:57:30.295Z,4.50
2023-05-13T10:00:34.793Z,4.60
2023-05-13T10:03:39.626Z,4.53
2023-05-13T10:06:47.307Z,5.25
2023-05-13T10:09:54.726Z,4.70
2023-05-13T10:13:20.955Z,4.75
2023-05-13T10:16:25.665Z,4.93
2023-05-13T10:19:28.983Z,4.57
2023-05-13T10:22:34.917Z,4.68
2023-05-13T10:25:38.759Z,4.20
2023-05-13T10:28:43.869Z,4.90
2023-05-13T10:31:48.067Z,8.47
2023-05-13T10:35:15.098Z,5.90
2023-05-13T10:38:36.776Z,5.18
2023-05-13T10:41:52.118Z,6.90
2023-05-13T10:44:56.610Z,4.90
2023-05-13T10:48:07.345Z,4.87
2023-05-13T10:51:14.319Z,4.72
2023-05-13T10:54:23.033Z,4.82
2023-05-13T10:57:35.916Z,4.25
2023-05-13T11:00:45.774Z,5.03
2023-05-13T11:03:58.401Z,4.03
2023-05-13T11:07:16.686Z,4.50
2023-05-13T11:10:32.547Z,5.45
2023-05-13T11:13:37.915Z,5.50
2023-05-13T11:16:46.649Z,5.00
2023-05-13T11:19:51.784Z,4.37
2023-05-13T11:22:54.828Z,4.57
2023-05-13T11:26:12.528Z,4.50
2023-05-13T11:29:27.629Z,4.95
2023-05-13T11:32:58.990Z,4.90
2023-05-13T11:36:04.926Z,5.10
2023-05-13T11:39:14.159Z,4.80
2023-05-13T11:42:17.584Z,4.65
2023-05-13T11:45:23.924Z,4.50
2023-05-13T11:48:27.358Z,4.87
2023-05-13T11:51:32.156Z,4.67
2023-05-13T11:54:49.308Z,4.45
2023-05-13T11:57:53.277Z,4.95
2023-05-13T12:00:56.524Z,5.78
2023-05-13T12:04:03.024Z,5.37
2023-05-13T12:07:06.153Z,5.60
2023-05-13T12:10:09.734Z,4.90
2023-05-13T12:13:13.429Z,5.00
2023-05-13T12:16:17.113Z,6.45
2023-05-13T12:19:20.261Z,5.93
2023-05-13T12:22:24.306Z,5.37
2023-05-13T12:25:36.508Z,4.97
2023-05-13T12:28:39.832Z,5.05
2023-05-13T12:32:03.936Z,5.72
2023-05-13T12:35:14.513Z,5.62
2023-05-13T12:38:24.177Z,4.70
2023-05-13T12:41:32.923Z,6.10
2023-05-13T12:44:36.110Z,6.00
2023-05-13T12:47:53.090Z,5.70
2023-05-13T12:50:56.646Z,4.65
2023-05-13T12:54:00.904Z,5.77
2023-05-13T12:57:11.639Z,6.03
2023-05-13T13:00:15.413Z,5.35
2023-05-13T13:03:20.403Z,4.60
2023-05-13T13:06:25.079Z,5.55
2023-05-13T13:09:28.061Z,5.20
2023-05-13T13:12:31.465Z,5.68
2023-05-13T13:15:34.607Z,4.97
2023-05-13T13:18:38.027Z,4.60
2023-05-13T13:21:42.223Z,5.60
2023-05-13T13:24:45.508Z,5.50
2023-05-13T13:27:49.040Z,5.22
2023-05-13T13:30:52.687Z,5.30
2023-05-13T13:33:55.889Z,4.93
2023-05-13T13:36:59.266Z,4.95
2023-05-13T13:40:02.926Z,4.70
2023-05-13T13:43:07.274Z,4.60
2023-05-13T13:46:10.501Z,4.68
2023-05-13T13:49:23.070Z,4.28
2023-05-13T13:52:28.752Z,4.15
2023-05-13T13:55:32.267Z,4.07
2023-05-13T13:58:35.761Z,4.10
2023-05-13T14:01:40.452Z,4.40
2023-05-13T14:04:43.977Z,3.85
2023-05-13T14:07:49.498Z,4.37
2023-05-13T14:10:53.101Z,3.77
2023-05-13T14:13:56.248Z,3.60
2023-05-13T14:16:59.619Z,4.00
2023-05-13T14:20:02.770Z,3.65
2023-05-13T14:23:06.258Z,4.40
2023-05-13T14:26:10.973Z,4.23
2023-05-13T14:29:14.994Z,4.20
2023-05-13T14:32:18.330Z,4.03
2023-05-13T14:35:22.189Z,4.18
2023-05-13T14:38:27.249Z,4.15
2023-05-13T14:41:30.856Z,3.70
2023-05-13T14:44:33.973Z,4.10
2023-05-13T14:47:37.565Z,4.25
2023-05-13T14:50:41.956Z,3.78
2023-05-13T14:53:45.548Z,3.95
2023-05-13T14:56:48.671Z,3.47
2023-05-13T14:59:51.962Z,3.47
2023-05-13T15:02:55.179Z,3.90
2023-05-13T15:05:58.720Z,3.90
2023-05-13T15:09:02.084Z,3.90
2023-05-13T15:12:05.996Z,3.80
2023-05-13T15:15:10.207Z,3.85
2023-05-13T15:18:14.656Z,3.70
2023-05-13T15:21:18.043Z,3.17
2023-05-13T15:24:21.701Z,4.00
2023-05-13T15:27:27.617Z,3.73
2023-05-13T15:30:32.001Z,3.70
2023-05-13T15:33:35.079Z,3.92
2023-05-13T15:36:38.259Z,3.62
2023-05-13T15:39:41.191Z,3.25
2023-05-13T15:42:44.392Z,3.87
2023-05-13T15:45:47.861Z,3.58
2023-05-13T15:48:51.469Z,3.53
2023-05-13T15:51:56.212Z,4.00
2023-05-13T15:55:00.150Z,3.70
2023-05-13T15:58:03.566Z,3.80
2023-05-13T16:01:07.253Z,4.00
2023-05-13T16:04:10.755Z,3.75
2023-05-13T16:07:13.956Z,3.90
2023-05-13T16:10:19.078Z,4.22
2023-05-13T16:13:22.285Z,4.20
2023-05-13T16:16:26.212Z,4.40
2023-05-13T16:19:29.559Z,4.20
2023-05-13T16:22:38.369Z,4.95
2023-05-13T16:25:43.167Z,5.30
2023-05-13T16:28:46.511Z,6.60
2023-05-13T16:31:49.596Z,5.47
2023-05-13T16:34:53.595Z,5.30
2023-05-13T16:37:56.765Z,4.72
2023-05-13T16:41:00.158Z,4.53
2023-05-13T16:44:03.389Z,4.80
2023-05-13T16:47:10.985Z,5.25
2023-05-13T16:50:15.004Z,4.82
2023-05-13T16:53:18.458Z,4.55
2023-05-13T16:56:21.705Z,4.93
2023-05-13T16:59:27.249Z,4.60
2023-05-13T17:02:30.704Z,4.43
2023-05-13T17:05:36.630Z,4.97
2023-05-13T17:08:39.594Z,4.68
2023-05-13T17:11:43.174Z,4.60
2023-05-13T17:14:46.604Z,4.67
2023-05-13T17:17:51.488Z,4.40
2023-05-13T17:20:55.162Z,4.50
2023-05-13T17:23:59.284Z,5.07
2023-05-13T17:27:02.874Z,4.87
2023-05-13T17:30:07.227Z,4.50
2023-05-13T17:33:10.604Z,5.05
2023-05-13T17:36:14.084Z,5.40
2023-05-13T17:39:17.265Z,4.40
2023-05-13T17:42:21.920Z,4.93
2023-05-13T17:45:25.106Z,4.30
2023-05-13T17:48:28.992Z,4.45
2023-05-13T17:51:32.505Z,4.32
2023-05-13T17:54:37.268Z,4.53
2023-05-13T17:57:40.445Z,4.40
2023-05-13T18:00:43.970Z,4.60
2023-05-13T18:03:47.428Z,4.75
2023-05-13T18:06:51.009Z,4.40
2023-05-13T18:09:54.611Z,4.72
2023-05-13T18:12:57.899Z,4.97
2023-05-13T18:16:01.375Z,4.60
2023-05-13T18:19:04.614Z,4.75
2023-05-13T18:22:11.334Z,4.55
2023-05-13T18:25:14.450Z,4.68
2023-05-13T18:28:17.723Z,4.50
2023-05-13T18:31:20.718Z,4.40
2023-05-13T18:34:25.151Z,4.78
2023-05-13T18:37:28.319Z,4.72
2023-05-13T18:40:31.828Z,4.30
2023-05-13T18:43:35.164Z,4.82
2023-05-13T18:46:38.682Z,4.87
2023-05-13T18:49:41.860Z,5.20
2023-05-13T18:52:46.357Z,4.87
2023-05-13T18:55:50.231Z,4.60
2023-05-13T18:58:55.693Z,5.20
2023-05-13T19:02:01.382Z,4.97
2023-05-13T19:05:07.669Z,5.03
2023-05-13T19:08:12.682Z,5.10
2023-05-13T19:11:18.656Z,5.30
2023-05-13T19:14:25.076Z,5.20
2023-05-13T19:17:31.141Z,4.80
2023-05-13T19:20:35.817Z,5.20
2023-05-13T19:23:40.946Z,5.75
2023-05-13T19:26:46.582Z,5.10
2023-05-13T19:29:53.814Z,4.78
2023-05-13T19:32:58.838Z,5.07
2023-05-13T19:36:05.245Z,5.12
2023-05-13T19:39:10.769Z,5.30
2023-05-13T19:42:16.396Z,6.97
2023-05-13T19:45:21.458Z,7.30
2023-05-13T19:48:28.300Z,5.60
2023-05-13T19:51:34.161Z,6.70
2023-05-13T19:54:38.771Z,8.27
2023-05-13T19:57:43.232Z,8.25
2023-05-13T20:00:48.498Z,7.15
2023-05-13T20:03:55.426Z,6.43
2023-05-13T20:07:00.195Z,6.97
2023-05-13T20:10:06.312Z,6.57
2023-05-13T20:13:10.811Z,6.80
2023-05-13T20:16:16.458Z,7.20
2023-05-13T20:19:21.992Z,7.20
2023-05-13T20:22:27.848Z,6.95
2023-05-13T20:25:32.986Z,7.28
2023-05-13T20:28:38.589Z,7.68
2023-05-13T20:31:44.893Z,7.20
2023-05-13T20:34:51.315Z,8.30
2023-05-13T20:37:57.384Z,8.32
2023-05-13T20:41:01.718Z,7.97
2023-05-13T20:44:07.206Z,8.63
2023-05-13T20:47:14.265Z,8.15
2023-05-13T20:50:18.379Z,7.93
2023-05-13T20:53:23.576Z,8.73
2023-05-13T20:56:27.416Z,8.50
2023-05-13T20:59:32.768Z,8.68
2023-05-13T21:02:36.696Z,8.93
2023-05-13T21:05:40.242Z,8.93
2023-05-13T21:08:44.417Z,9.50
2023-05-13T21:11:48.099Z,9.13
2023-05-13T21:14:51.425Z,8.95
2023-05-13T21:17:54.957Z,10.23
2023-05-13T21:20:58.071Z,9.07
2023-05-13T21:24:01.512Z,9.10
2023-05-13T21:27:04.784Z,9.48
2023-05-13T21:30:08.870Z,10.10
2023-05-13T21:33:12.792Z,10.43
2023-05-13T21:36:16.279Z,10.17
2023-05-13T21:39:19.228Z,11.23
2023-05-13T21:42:23.294Z,10.80
2023-05-13T21:45:26.603Z,10.60
2023-05-13T21:48:30.330Z,9.53
2023-05-13T21:51:33.394Z,9.77
2023-05-13T21:54:36.932Z,10.00
2023-05-13T21:57:41.625Z,13.73
2023-05-13T22:00:45.316Z,15.15
2023-05-13T22:03:48.203Z,14.83
2023-05-13T22:06:52.235Z,13.60
2023-05-13T22:09:55.342Z,13.95
2023-05-13T22:12:58.835Z,12.63
2023-05-13T22:16:01.892Z,13.30
2023-05-13T22:19:05.387Z,12.23
2023-05-13T22:22:08.678Z,13.07
2023-05-13T22:25:12.111Z,13.40
2023-05-13T22:28:16.304Z,11.50
2023-05-13T22:31:19.943Z,11.60
2023-05-13T22:34:24.445Z,11.95
2023-05-13T22:37:28.860Z,10.88
2023-05-13T22:40:32.030Z,10.90
2023-05-13T22:43:35.899Z,10.52
2023-05-13T22:46:39.626Z,10.87
2023-05-13T22:49:43.038Z,9.55
2023-05-13T22:52:46.115Z,10.55
2023-05-13T22:55:49.502Z,9.75
2023-05-13T22:58:52.781Z,10.40
2023-05-13T23:01:56.487Z,10.63
2023-05-13T23:04:59.643Z,11.55
2023-05-13T23:08:03.356Z,11.73
2023-05-13T23:11:06.605Z,11.38
2023-05-13T23:14:10.090Z,11.83
2023-05-13T23:17:13.296Z,11.48
2023-05-13T23:20:17.712Z,10.88
2023-05-13T23:23:20.911Z,11.07
2023-05-13T23:26:25.294Z,9.93
2023-05-13T23:29:28.419Z,9.50
2023-05-13T23:32:31.792Z,9.98
2023-05-13T23:35:35.807Z,10.40
2023-05-13T23:38:39.814Z,9.98
2023-05-13T23:41:42.891Z,9.43
2023-05-13T23:44:46.549Z,10.43
2023-05-13T23:47:50.709Z,9.57
2023-05-13T23:50:54.540Z,9.35
2023-05-13T23:53:57.904Z,9.27
2023-05-13T23:57:01.341Z,10.13
